Stanton, North Dakota
Current Conditions -  °F | °C
As of 8:55 PM on Tuesday 25 Nov 2014 (Local Time) from KHZE Reporting Station
Overcast Overcast  
Wind Chill:   Ceiling: 2500
Heat Index: 19°   Visibility: 10mi
Dew Point: 14°   Wind: 15mph
Humidity: 80%   Direction: 40°NE
Pressure: 30.06"   Gusts: 21mph
Location:  47.32°N, 101.38°W
Report Text: KHZE 260355Z AUTO 04013G18KT 10SM SCT012 BKN025 OVC035 M07/M10 A3006 RMK AO2
Loading
Personal Weather Stations






























Interactive Weather Map New forecast layout! Learn more

10-Day Weather Forecast

Advertisements
Track Severe Weather on mobile